Time;durP1;ratioP1;P1;durP2;ratioP2;P2;SDS_P1;SDS_P2;PMS_P1;PMS_P2;Temp;Humidity;BMP_temperature;BMP_pressure;BME280_temperature;BME280_humidity;BME280_pressure;Samples;Min_cycle;Max_cycle;Signal;HPM_P1;HPM_P2
2024/04/05 00:01:12;;;;;;;;;;;;;;;;;;4438935;32;19945;-66
2024/04/05 00:03:37;;;;;;;;;;;;;;;;;;4450241;32;20344;-66
2024/04/05 00:06:02;;;;;;;;;;;;;;;;;;4437573;32;19936;-65
2024/04/05 00:08:30;;;;;;;;;;;;;;;;;;4438624;32;19941;-66
2024/04/05 00:10:55;;;;;;;;;;;;;;;;;;4453392;32;19993;-66
2024/04/05 00:13:21;;;;;;;;;;;;;;;;;;4453329;32;19933;-66
2024/04/05 00:15:46;;;;;;;;;;;;;;;;;;4442252;32;19932;-66
2024/04/05 00:18:12;;;;;;;;;;;;;;;;;;4438853;32;19973;-66
2024/04/05 00:20:37;;;;;;;;;;;;;;;;;;4450770;32;19970;-66
2024/04/05 00:23:02;;;;;;;;;;;;;;;;;;4453034;32;19940;-66
2024/04/05 00:25:27;;;;;;;;;;;;;;;;;;4450692;32;20313;-66
2024/04/05 00:27:54;;;;;;;;;;;;;;;;;;4438692;32;20306;-66
2024/04/05 00:30:19;;;;;;;;;;;;;;;;;;4438407;32;19959;-66
2024/04/05 00:32:44;;;;;;;;;;;;;;;;;;4438349;32;19972;-66
2024/04/05 00:35:09;;;;;;;;;;;;;;;;;;4438267;32;19944;-66
2024/04/05 00:37:34;;;;;;;;;;;;;;;;;;4435848;32;19978;-65
2024/04/05 00:40:00;;;;;;;;;;;;;;;;;;4450645;32;19936;-65
2024/04/05 00:42:25;;;;;;;;;;;;;;;;;;4442060;32;20324;-66
2024/04/05 00:44:50;;;;;;;;;;;;;;;;;;4435366;32;19933;-66
2024/04/05 00:47:15;;;;;;;;;;;;;;;;;;4436905;32;19952;-67
2024/04/05 00:49:40;;;;;;;;;;;;;;;;;;4437438;32;19996;-66
2024/04/05 00:52:05;;;;;;;;;;;;;;;;;;4436328;32;19955;-66
2024/04/05 00:54:31;;;;;;;;;;;;;;;;;;4436951;32;20318;-66
2024/04/05 00:56:57;;;;;;;;;;;;;;;;;;4435500;32;19933;-67
2024/04/05 00:59:22;;;;;;;;;;;;;;;;;;4446515;32;19932;-66
2024/04/05 01:01:47;;;;;;;;;;;;;;;;;;4451915;32;19958;-67
2024/04/05 01:04:12;;;;;;;;;;;;;;;;;;4439597;32;20370;-65
2024/04/05 01:06:37;;;;;;;;;;;;;;;;;;4438635;32;19937;-66
2024/04/05 01:09:05;;;;;;;;;;;;;;;;;;4445805;32;19948;-66
2024/04/05 01:11:31;;;;;;;;;;;;;;;;;;4439830;32;19947;-66
2024/04/05 01:13:56;;;;;;;;;;;;;;;;;;4441762;32;19960;-66
2024/04/05 01:16:21;;;;;;;;;;;;;;;;;;4450712;32;19951;-67
2024/04/05 01:18:47;;;;;;;;;;;;;;;;;;4444027;32;19940;-66
2024/04/05 01:21:12;;;;;;;;;;;;;;;;;;4444822;32;20273;-67
2024/04/05 01:23:37;;;;;;;;;;;;;;;;;;4451082;32;19933;-65
2024/04/05 01:26:02;;;;;;;;;;;;;;;;;;4436567;32;19960;-66
2024/04/05 01:28:27;;;;;;;;;;;;;;;;;;4439696;32;19936;-65
2024/04/05 01:30:53;;;;;;;;;;;;;;;;;;4452170;32;19948;-67
2024/04/05 01:33:18;;;;;;;;;;;;;;;;;;4439779;32;19961;-65
2024/04/05 01:35:43;;;;;;;;;;;;;;;;;;4434859;32;20009;-65
2024/04/05 01:38:08;;;;;;;;;;;;;;;;;;4437061;32;20230;-64
2024/04/05 01:40:33;;;;;;;;;;;;;;;;;;4442865;32;20309;-64
2024/04/05 01:42:58;;;;;;;;;;;;;;;;;;4437386;32;20310;-65
2024/04/05 01:45:23;;;;;;;;;;;;;;;;;;4437700;32;20382;-65
2024/04/05 01:47:49;;;;;;;;;;;;;;;;;;4436429;32;19992;-66
2024/04/05 01:50:14;;;;;;;;;;;;;;;;;;4436371;32;19984;-66
2024/04/05 01:52:39;;;;;;;;;;;;;;;;;;4448776;32;19978;-64
2024/04/05 01:55:04;;;;;;;;;;;;;;;;;;4441507;32;20302;-65
2024/04/05 01:57:29;;;;;;;;;;;;;;;;;;4451526;32;19932;-67
2024/04/05 01:59:54;;;;;;;;;;;;;;;;;;4452981;32;20027;-66
2024/04/05 02:02:19;;;;;;;;;;;;;;;;;;4439316;32;19955;-67
2024/04/05 02:04:44;;;;;;;;;;;;;;;;;;4435775;32;19948;-65
2024/04/05 02:07:10;;;;;;;;;;;;;;;;;;4435763;32;20018;-64
2024/04/05 02:09:35;;;;;;;;;;;;;;;;;;4436161;32;20329;-65
2024/04/05 02:12:00;;;;;;;;;;;;;;;;;;4437549;32;19953;-66
2024/04/05 02:14:25;;;;;;;;;;;;;;;;;;4453163;32;20227;-64
2024/04/05 02:16:50;;;;;;;;;;;;;;;;;;4452602;32;19937;-65
2024/04/05 02:19:16;;;;;;;;;;;;;;;;;;4451242;32;20018;-65
2024/04/05 02:21:42;;;;;;;;;;;;;;;;;;4450766;32;20195;-64
2024/04/05 02:24:07;;;;;;;;;;;;;;;;;;4451253;32;19956;-66
2024/04/05 02:26:32;;;;;;;;;;;;;;;;;;4451578;32;19932;-66
2024/04/05 02:28:57;;;;;;;;;;;;;;;;;;4442012;32;19944;-66
2024/04/05 02:31:22;;;;;;;;;;;;;;;;;;4435559;32;20344;-65
2024/04/05 02:33:47;;;;;;;;;;;;;;;;;;4450171;32;19977;-66
2024/04/05 02:36:13;;;;;;;;;;;;;;;;;;4450847;32;19962;-65
2024/04/05 02:38:38;;;;;;;;;;;;;;;;;;4438355;32;19956;-65
2024/04/05 02:41:07;;;;;;;;;;;;;;;;;;4436972;32;19995;-65
2024/04/05 02:43:32;;;;;;;;;;;;;;;;;;4436904;32;19932;-65
2024/04/05 02:45:57;;;;;;;;;;;;;;;;;;4436428;32;20260;-66
2024/04/05 02:48:22;;;;;;;;;;;;;;;;;;4436150;32;20004;-66
2024/04/05 02:50:48;;;;;;;;;;;;;;;;;;4435508;32;19967;-66
2024/04/05 02:53:13;;;;;;;;;;;;;;;;;;4435703;32;19937;-65
2024/04/05 02:55:38;;;;;;;;;;;;;;;;;;4435135;32;19969;-65
2024/04/05 02:58:03;;;;;;;;;;;;;;;;;;4443886;32;19965;-66
2024/04/05 03:00:28;;;;;;;;;;;;;;;;;;4449720;32;19944;-66
2024/04/05 03:02:53;;;;;;;;;;;;;;;;;;4451855;32;19970;-66
2024/04/05 03:05:18;;;;;;;;;;;;;;;;;;4449143;32;19936;-66
2024/04/05 03:07:43;;;;;;;;;;;;;;;;;;4442467;32;19968;-66
2024/04/05 03:10:08;;;;;;;;;;;;;;;;;;4436631;32;19944;-65
2024/04/05 03:12:33;;;;;;;;;;;;;;;;;;4440091;32;19937;-67
2024/04/05 03:14:59;;;;;;;;;;;;;;;;;;4437150;32;19936;-66
2024/04/05 03:17:24;;;;;;;;;;;;;;;;;;4441690;32;20004;-65
2024/04/05 03:19:49;;;;;;;;;;;;;;;;;;4451578;32;19937;-65
2024/04/05 03:22:14;;;;;;;;;;;;;;;;;;4445884;32;19963;-65
2024/04/05 03:24:39;;;;;;;;;;;;;;;;;;4435447;32;19970;-65
2024/04/05 03:27:05;;;;;;;;;;;;;;;;;;4438866;32;19967;-66
2024/04/05 03:29:30;;;;;;;;;;;;;;;;;;4450576;32;19960;-66
2024/04/05 03:31:55;;;;;;;;;;;;;;;;;;4447510;32;19982;-66
2024/04/05 03:34:20;;;;;;;;;;;;;;;;;;4436427;32;19945;-65
2024/04/05 03:36:46;;;;;;;;;;;;;;;;;;4436189;32;19932;-66
2024/04/05 03:39:11;;;;;;;;;;;;;;;;;;4444343;32;19936;-65
2024/04/05 03:41:36;;;;;;;;;;;;;;;;;;4449822;32;19989;-66
2024/04/05 03:44:01;;;;;;;;;;;;;;;;;;4450660;32;20269;-66
2024/04/05 03:46:28;;;;;;;;;;;;;;;;;;4451043;32;19956;-66
2024/04/05 03:48:53;;;;;;;;;;;;;;;;;;4449673;32;19940;-67
2024/04/05 03:51:18;;;;;;;;;;;;;;;;;;4451371;32;19933;-66
2024/04/05 03:53:43;;;;;;;;;;;;;;;;;;4449515;32;19963;-67
2024/04/05 03:56:08;;;;;;;;;;;;;;;;;;4451643;32;19940;-67
2024/04/05 03:58:33;;;;;;;;;;;;;;;;;;4450235;32;19940;-65
2024/04/05 04:00:58;;;;;;;;;;;;;;;;;;4450682;32;20412;-65
2024/04/05 04:03:23;;;;;;;;;;;;;;;;;;4440045;32;19968;-66
2024/04/05 04:05:49;;;;;;;;;;;;;;;;;;4434789;32;19943;-66
2024/04/05 04:08:15;;;;;;;;;;;;;;;;;;4436312;32;19987;-66
2024/04/05 04:10:42;;;;;;;;;;;;;;;;;;4447626;32;20261;-67
2024/04/05 04:13:07;;;;;;;;;;;;;;;;;;4448294;32;19932;-66
2024/04/05 04:15:33;;;;;;;;;;;;;;;;;;4453526;32;19980;-67
2024/04/05 04:17:58;;;;;;;;;;;;;;;;;;4453983;32;20287;-66
2024/04/05 04:20:23;;;;;;;;;;;;;;;;;;4453890;32;19948;-66
2024/04/05 04:22:48;;;;;;;;;;;;;;;;;;4452840;32;19932;-66
2024/04/05 04:25:13;;;;;;;;;;;;;;;;;;4450762;32;20246;-66
2024/04/05 04:27:38;;;;;;;;;;;;;;;;;;4453473;32;20400;-66
2024/04/05 04:30:04;;;;;;;;;;;;;;;;;;4440921;32;19979;-66
2024/04/05 04:32:29;;;;;;;;;;;;;;;;;;4438554;32;19937;-66
2024/04/05 04:34:54;;;;;;;;;;;;;;;;;;4436718;32;19948;-67
2024/04/05 04:37:19;;;;;;;;;;;;;;;;;;4438688;32;19959;-67
2024/04/05 04:39:46;;;;;;;;;;;;;;;;;;4438246;32;20008;-66
2024/04/05 04:42:11;;;;;;;;;;;;;;;;;;4437403;32;19975;-67
2024/04/05 04:44:37;;;;;;;;;;;;;;;;;;4437168;32;19929;-67
2024/04/05 04:47:02;;;;;;;;;;;;;;;;;;4438400;32;19952;-66
2024/04/05 04:49:27;;;;;;;;;;;;;;;;;;4436787;32;19937;-66
2024/04/05 04:51:52;;;;;;;;;;;;;;;;;;4436828;32;19956;-69
2024/04/05 04:54:17;;;;;;;;;;;;;;;;;;4438007;32;19944;-65
2024/04/05 04:56:42;;;;;;;;;;;;;;;;;;4437242;32;19955;-65
2024/04/05 04:59:09;;;;;;;;;;;;;;;;;;4435732;32;19937;-67
2024/04/05 05:01:34;;;;;;;;;;;;;;;;;;4436941;32;19962;-65
2024/04/05 05:03:59;;;;;;;;;;;;;;;;;;4436485;32;20326;-66
2024/04/05 05:06:24;;;;;;;;;;;;;;;;;;4438450;32;19964;-65
2024/04/05 05:08:49;;;;;;;;;;;;;;;;;;4440137;32;19967;-66
2024/04/05 05:11:14;;;;;;;;;;;;;;;;;;4445252;32;20016;-66
2024/04/05 05:13:39;;;;;;;;;;;;;;;;;;4434970;32;19990;-65
2024/04/05 05:16:05;;;;;;;;;;;;;;;;;;4442516;32;19968;-66
2024/04/05 05:18:30;;;;;;;;;;;;;;;;;;4452805;32;19944;-65
2024/04/05 05:20:55;;;;;;;;;;;;;;;;;;4445131;32;19941;-65
2024/04/05 05:23:20;;;;;;;;;;;;;;;;;;4436261;32;19937;-67
2024/04/05 05:25:45;;;;;;;;;;;;;;;;;;4439949;32;20003;-66
2024/04/05 05:28:11;;;;;;;;;;;;;;;;;;4451394;32;19933;-66
2024/04/05 05:30:39;;;;;;;;;;;;;;;;;;4451541;32;19979;-66
2024/04/05 05:33:04;;;;;;;;;;;;;;;;;;4451691;32;19986;-66
2024/04/05 05:35:30;;;;;;;;;;;;;;;;;;4452601;32;20020;-66
2024/04/05 05:37:55;;;;;;;;;;;;;;;;;;4451756;32;19943;-66
2024/04/05 05:40:20;;;;;;;;;;;;;;;;;;4443142;32;19971;-66
2024/04/05 05:42:45;;;;;;;;;;;;;;;;;;4435760;32;20302;-66
2024/04/05 05:45:10;;;;;;;;;;;;;;;;;;4437328;32;20017;-66
2024/04/05 05:47:56;;;;;;;30.75;7.78;;;;;;;;;;4494433;31;20051;-65
2024/04/05 05:50:22;;;;;;;22.15;6.85;;;;;;;;;;4462566;32;20033;-64
2024/04/05 05:52:48;;;;;;;24.92;7.12;;;;;;;;;;4458547;32;20047;-64
2024/04/05 05:55:14;;;;;;;25.58;6.65;;;;;;;;;;4479278;32;20048;-63
2024/04/05 05:57:39;;;;;;;19.73;6.20;;;;;;;;;;4479986;32;20086;-65
2024/04/05 06:00:09;;;;;;;22.52;7.20;;;;;;;;;;4465562;32;20021;-66
2024/04/05 06:02:34;;;;;;;26.95;6.53;;;;;;;;;;4450934;32;20025;-64
2024/04/05 06:04:59;;;;;;;18.45;6.28;;;;;;;;;;4463126;32;20121;-65
2024/04/05 06:07:25;;;;;;;23.83;7.03;;;;;;;;;;4451510;32;20041;-64
2024/04/05 06:09:50;;;;;;;23.67;7.45;;;;;;;;;;4449684;32;20021;-64
2024/04/05 06:12:15;;;;;;;27.25;7.30;;;;;;;;;;4473021;32;20037;-65
2024/04/05 06:14:42;;;;;;;22.85;6.30;;;;;;;;;;4479973;32;20040;-66
2024/04/05 06:17:07;;;;;;;23.10;6.47;;;;;;;;;;4479380;32;20063;-66
2024/04/05 06:19:32;;;;;;;24.75;6.15;;;;;;;;;;4478119;32;20041;-65
2024/04/05 06:21:57;;;;;;;24.77;7.60;;;;;;;;;;4460489;32;20032;-67
2024/04/05 06:24:23;;;;;;;26.23;6.60;;;;;;;;;;4473245;32;20073;-66
2024/04/05 06:26:48;;;;;;;27.53;7.03;;;;;;;;;;4468568;32;20338;-66
2024/04/05 06:29:13;;;;;;;23.48;6.43;;;;;;;;;;4463895;32;20148;-67
2024/04/05 06:31:38;;;;;;;33.40;7.93;;;;;;;;;;4450075;32;20017;-66
2024/04/05 06:34:04;;;;;;;19.75;6.32;;;;;;;;;;4447661;32;20438;-67
2024/04/05 06:36:29;;;;;;;23.73;6.50;;;;;;;;;;4449372;32;20065;-65
2024/04/05 06:38:54;;;;;;;21.33;7.45;;;;;;;;;;4447239;32;20093;-66
2024/04/05 06:41:20;;;;;;;26.37;7.12;;;;;;;;;;4445179;32;20028;-66
2024/04/05 06:43:45;;;;;;;23.80;7.20;;;;;;;;;;4455712;32;20097;-66
2024/04/05 06:46:10;;;;;;;21.67;6.22;;;;;;;;;;4438655;32;20037;-67
2024/04/05 06:48:36;;;;;;;24.02;7.37;;;;;;;;;;4437626;32;20079;-66
2024/04/05 06:51:08;;;;;;;19.05;5.90;;;;;;;;;;4432785;32;20052;-67
2024/04/05 06:53:33;;;;;;;26.83;6.22;;;;;;;;;;4448136;32;20081;-67
2024/04/05 06:55:58;;;;;;;22.02;6.70;;;;;;;;;;4448409;32;20133;-67
2024/04/05 06:58:24;;;;;;;18.98;6.70;;;;;;;;;;4456217;32;20021;-66
2024/04/05 07:00:49;;;;;;;23.12;7.55;;;;;;;;;;4436082;32;20485;-67
2024/04/05 07:03:14;;;;;;;24.02;6.62;;;;;;;;;;4452581;32;20061;-65
2024/04/05 07:05:40;;;;;;;16.95;7.37;;;;;;;;;;4441036;32;20073;-67
2024/04/05 07:08:09;;;;;;;23.80;6.50;;;;;;;;;;4422583;32;20025;-65
2024/04/05 07:10:36;;;;;;;23.27;6.45;;;;;;;;;;4436441;32;20025;-66
2024/04/05 07:13:01;;;;;;;18.52;6.35;;;;;;;;;;4440400;32;20069;-66
2024/04/05 07:15:26;;;;;;;15.05;6.03;;;;;;;;;;4439534;32;20053;-66
2024/04/05 07:17:52;;;;;;;17.42;7.70;;;;;;;;;;4438225;32;20037;-66
2024/04/05 07:20:18;;;;;;;25.52;5.93;;;;;;;;;;4435822;32;20053;-65
2024/04/05 07:22:43;;;;;;;25.58;7.62;;;;;;;;;;4437188;32;20026;-66
2024/04/05 07:25:08;;;;;;;26.83;7.70;;;;;;;;;;4437285;32;20484;-66
2024/04/05 07:27:34;;;;;;;21.27;6.60;;;;;;;;;;4436207;32;20034;-65
2024/04/05 07:29:59;;;;;;;20.83;7.30;;;;;;;;;;4424235;32;20125;-66
2024/04/05 07:32:24;;;;;;;20.65;7.55;;;;;;;;;;4438133;32;20105;-67
2024/04/05 07:34:49;;;;;;;;;;;;;;;;;;4437826;32;20094;-67
2024/04/05 07:37:15;;;;;;;;;;;;;;;;;;4438675;32;19955;-68
2024/04/05 07:39:42;;;;;;;19.80;6.65;;;;;;;;;;4424799;32;20000;-67
2024/04/05 07:42:07;;;;;;;20.90;6.93;;;;;;;;;;4436977;32;20078;-67
2024/04/05 07:44:32;;;;;;;19.10;8.40;;;;;;;;;;4441676;32;20025;-68
2024/04/05 07:46:58;;;;;;;20.12;5.80;;;;;;;;;;4452444;32;20045;-67
2024/04/05 07:49:23;;;;;;;19.42;6.53;;;;;;;;;;4443045;32;20096;-66
2024/04/05 07:51:49;;;;;;;15.32;5.68;;;;;;;;;;4447091;32;20140;-68
2024/04/05 07:54:14;;;;;;;17.35;5.25;;;;;;;;;;4450835;32;20365;-67
2024/04/05 07:56:39;;;;;;;19.73;7.22;;;;;;;;;;4451267;32;20057;-67
2024/04/05 07:59:06;;;;;;;15.52;5.70;;;;;;;;;;4441543;32;20022;-68
2024/04/05 08:01:31;;;;;;;14.73;5.32;;;;;;;;;;4436965;32;20060;-67
2024/04/05 08:03:56;;;;;;;15.75;5.90;;;;;;;;;;4437247;32;20022;-68
2024/04/05 08:06:21;;;;;;;13.25;5.45;;;;;;;;;;4434822;32;20465;-66
2024/04/05 08:08:46;;;;;;;14.48;5.12;;;;;;;;;;4420557;32;20052;-66
2024/04/05 08:11:12;;;;;;;14.95;5.57;;;;;;;;;;4435412;32;20021;-66
2024/04/05 08:13:37;;;;;;;15.63;5.37;;;;;;;;;;4441743;32;20025;-68
2024/04/05 08:16:04;;;;;;;19.08;7.53;;;;;;;;;;4435919;32;20082;-68
2024/04/05 08:18:30;;;;;;;24.02;5.90;;;;;;;;;;4436892;32;20103;-69
2024/04/05 08:20:55;;;;;;;16.05;4.93;;;;;;;;;;4449631;32;20057;-69
2024/04/05 08:23:20;;;;;;;22.52;5.82;;;;;;;;;;4429888;32;20071;-68
2024/04/05 08:25:45;;;;;;;15.20;5.32;;;;;;;;;;4450994;32;20371;-68
2024/04/05 08:28:10;;;;;;;13.15;5.60;;;;;;;;;;4441989;32;20052;-69
2024/04/05 08:30:35;;;;;;;14.02;5.43;;;;;;;;;;4435055;32;20026;-69
2024/04/05 08:33:03;;;;;;;14.77;5.40;;;;;;;;;;4436284;32;20029;-68
2024/04/05 08:35:29;;;;;;;17.15;5.35;;;;;;;;;;4434411;32;20029;-69
2024/04/05 08:38:00;;;;;;;18.05;5.57;;;;;;;;;;4436520;32;20034;-69
2024/04/05 08:40:26;;;;;;;16.52;4.65;;;;;;;;;;4434736;32;20056;-69
2024/04/05 08:42:51;;;;;;;12.32;4.57;;;;;;;;;;4425387;32;20029;-68
2024/04/05 08:45:16;;;;;;;10.18;4.37;;;;;;;;;;4445353;32;20093;-68
2024/04/05 08:47:43;;;;;;;15.98;5.22;;;;;;;;;;4427805;32;20038;-69
2024/04/05 08:50:08;;;;;;;9.00;3.60;;;;;;;;;;4435536;32;20113;-69
2024/04/05 08:52:34;;;;;;;11.25;4.05;;;;;;;;;;4445579;32;20025;-69
2024/04/05 08:54:59;;;;;;;13.95;4.12;;;;;;;;;;4425197;32;20022;-70
2024/04/05 08:57:28;;;;;;;13.20;3.40;;;;;;;;;;4435331;32;20017;-71
2024/04/05 08:59:54;;;;;;;13.45;4.12;;;;;;;;;;4451887;32;20071;-72
2024/04/05 09:02:20;;;;;;;7.78;4.43;;;;;;;;;;4442792;32;20084;-71
2024/04/05 09:04:45;;;;;;;10.90;3.25;;;;;;;;;;4437263;32;20059;-70
2024/04/05 09:07:11;;;;;;;12.70;3.55;;;;;;;;;;4435984;32;20033;-71
2024/04/05 09:09:37;;;;;;;10.07;4.03;;;;;;;;;;4450575;32;20048;-71
2024/04/05 09:12:10;;;;;;;9.45;3.83;;;;;;;;;;4449551;32;20047;-72
2024/04/05 09:14:37;;;;;;;12.07;5.37;;;;;;;;;;4438490;32;20030;-73
2024/04/05 09:17:03;;;;;;;9.43;3.35;;;;;;;;;;4435425;32;20025;-75
2024/04/05 09:19:29;;;;;;;9.98;3.28;;;;;;;;;;4451784;32;20021;-72
2024/04/05 09:21:54;;;;;;;10.90;3.87;;;;;;;;;;4450834;32;20096;-72
2024/04/05 09:24:19;;;;;;;10.60;3.78;;;;;;;;;;4440880;32;20057;-76
2024/04/05 09:26:45;;;;;;;12.15;5.87;;;;;;;;;;4449057;32;20036;-74
2024/04/05 09:29:13;;;;;;;10.38;3.97;;;;;;;;;;4447927;32;20129;-76
2024/04/05 09:31:39;;;;;;;6.97;3.67;;;;;;;;;;4445658;32;20448;-75
2024/04/05 09:34:05;;;;;;;10.18;3.87;;;;;;;;;;4434830;32;20116;-75
2024/04/05 09:36:34;;;;;;;13.15;4.18;;;;;;;;;;4430607;32;20456;-75
2024/04/05 09:39:06;;;;;;;11.85;3.85;;;;;;;;;;4436918;32;20082;-76
2024/04/05 09:41:33;;;;;;;9.45;3.50;;;;;;;;;;4431686;32;20098;-76
2024/04/05 09:43:59;;;;;;;6.90;3.10;;;;;;;;;;4450166;32;20055;-77
2024/04/05 09:46:26;;;;;;;8.77;2.85;;;;;;;;;;4450208;32;20057;-76
2024/04/05 09:48:51;;;;;;;6.82;2.53;;;;;;;;;;4431656;32;20092;-76
2024/04/05 09:51:19;;;;;;;6.05;3.78;;;;;;;;;;4450781;32;20309;-77
2024/04/05 09:53:47;;;;;;;12.43;3.15;;;;;;;;;;4450512;32;20044;-74
2024/04/05 09:56:16;;;;;;;6.75;2.55;;;;;;;;;;4450095;32;20086;-75
2024/04/05 09:58:43;;;;;;;9.32;3.00;;;;;;;;;;4439119;32;20029;-75
2024/04/05 10:01:09;;;;;;;9.05;2.80;;;;;;;;;;4433086;32;20059;-74
2024/04/05 10:03:35;;;;;;;9.73;3.10;;;;;;;;;;4441749;32;20018;-75
2024/04/05 10:06:13;;;;;;;6.20;2.60;;;;;;;;;;4436264;32;20409;-74
2024/04/05 10:08:39;;;;;;;4.18;2.10;;;;;;;;;;4449953;32;20041;-74
2024/04/05 10:11:14;;;;;;;5.80;3.00;;;;;;;;;;4449322;32;20033;-75
2024/04/05 10:13:39;;;;;;;6.75;2.67;;;;;;;;;;4437162;32;20425;-75
2024/04/05 10:16:05;;;;;;;10.05;3.72;;;;;;;;;;4436403;32;20025;-74
2024/04/05 10:18:34;;;;;;;6.93;3.17;;;;;;;;;;4439008;32;20471;-73
2024/04/05 10:21:01;;;;;;;6.18;2.60;;;;;;;;;;4435546;32;20134;-74
2024/04/05 10:23:26;;;;;;;7.37;2.58;;;;;;;;;;4434475;32;20025;-74
2024/04/05 10:25:52;;;;;;;6.95;2.37;;;;;;;;;;4434059;32;20038;-73
2024/04/05 10:28:21;;;;;;;11.57;2.65;;;;;;;;;;4429488;32;20358;-73
2024/04/05 10:30:46;;;;;;;10.63;3.42;;;;;;;;;;4434732;32;20343;-73
2024/04/05 10:33:16;;;;;;;8.60;2.87;;;;;;;;;;4450474;32;20059;-72
2024/04/05 10:35:41;;;;;;;8.07;2.65;;;;;;;;;;4453669;32;20116;-73
2024/04/05 10:38:08;;;;;;;7.65;2.28;;;;;;;;;;4451280;32;20017;-73
2024/04/05 10:40:33;;;;;;;7.45;2.62;;;;;;;;;;4439784;32;20399;-73
2024/04/05 10:43:06;;;;;;;8.70;3.08;;;;;;;;;;4447826;32;20109;-73
2024/04/05 10:45:31;;;;;;;4.32;2.40;;;;;;;;;;4435799;32;20056;-74
2024/04/05 10:47:56;;;;;;;10.80;2.75;;;;;;;;;;4435577;32;20045;-72
2024/04/05 10:50:21;;;;;;;12.13;3.08;;;;;;;;;;4436062;32;20037;-73
2024/04/05 10:52:51;;;;;;;5.10;2.40;;;;;;;;;;4443079;32;20109;-73
2024/04/05 10:55:16;;;;;;;10.60;3.45;;;;;;;;;;4438507;32;20368;-73
2024/04/05 10:57:41;;;;;;;8.60;3.10;;;;;;;;;;4452622;32;20029;-74
2024/04/05 11:00:11;;;;;;;10.10;2.97;;;;;;;;;;4436760;32;20033;-77
2024/04/05 11:02:38;;;;;;;9.25;3.10;;;;;;;;;;4451682;32;20157;-77
2024/04/05 11:05:13;;;;;;;10.65;4.05;;;;;;;;;;4433613;32;20018;-78
2024/04/05 11:07:44;;;;;;;6.57;2.70;;;;;;;;;;4425297;32;20026;-76
2024/04/05 11:10:13;;;;;;;6.93;3.50;;;;;;;;;;4439374;32;20061;-78
2024/04/05 11:12:38;;;;;;;7.28;4.53;;;;;;;;;;4446887;32;20172;-79
2024/04/05 11:15:03;;;;;;;7.75;3.35;;;;;;;;;;4439484;32;20378;-78
2024/04/05 11:17:28;;;;;;;11.57;4.03;;;;;;;;;;4440411;32;20021;-82
2024/04/05 11:20:05;;;;;;;8.10;4.00;;;;;;;;;;4452079;32;20052;-77
2024/04/05 11:22:30;;;;;;;8.13;3.58;;;;;;;;;;4438637;32;20087;-78
2024/04/05 11:24:55;;;;;;;8.02;3.33;;;;;;;;;;4437418;32;20030;-78
2024/04/05 11:27:21;;;;;;;11.70;4.37;;;;;;;;;;4445283;32;20405;-79
2024/04/05 11:29:46;;;;;;;6.68;4.03;;;;;;;;;;4439231;32;20051;-76
2024/04/05 11:32:11;;;;;;;12.05;4.22;;;;;;;;;;4428907;32;20026;-78
2024/04/05 11:34:36;;;;;;;11.70;4.57;;;;;;;;;;4423206;32;20052;-77
2024/04/05 11:37:02;;;;;;;10.73;4.60;;;;;;;;;;4448835;32;20063;-76
2024/04/05 11:39:27;;;;;;;10.68;3.20;;;;;;;;;;4453770;32;20021;-76
2024/04/05 11:41:54;;;;;;;7.75;3.10;;;;;;;;;;4433796;32;20014;-78
2024/04/05 11:44:19;;;;;;;10.50;4.47;;;;;;;;;;4428382;32;20017;-77
2024/04/05 11:46:44;;;;;;;5.95;2.90;;;;;;;;;;4429721;32;20122;-76
2024/04/05 11:49:12;;;;;;;5.65;3.37;;;;;;;;;;4423054;32;20083;-79
2024/04/05 11:51:37;;;;;;;9.45;7.40;;;;;;;;;;4436528;32;20093;-78
2024/04/05 11:54:02;;;;;;;8.55;3.37;;;;;;;;;;4439097;32;20383;-76
2024/04/05 11:56:27;;;;;;;9.48;4.25;;;;;;;;;;4446183;32;20047;-76
2024/04/05 11:58:53;;;;;;;10.82;3.03;;;;;;;;;;4452278;32;20022;-77
2024/04/05 12:01:19;;;;;;;10.75;3.00;;;;;;;;;;4442178;32;20373;-77
2024/04/05 12:03:44;;;;;;;8.68;5.15;;;;;;;;;;4451632;32;20077;-76
2024/04/05 12:06:12;;;;;;;12.95;3.97;;;;;;;;;;4448043;32;20088;-76
2024/04/05 12:08:37;;;;;;;9.27;3.55;;;;;;;;;;4435653;32;20339;-76
2024/04/05 12:11:02;;;;;;;9.18;2.92;;;;;;;;;;4430359;32;20045;-76
2024/04/05 12:13:28;;;;;;;8.18;2.53;;;;;;;;;;4437718;32;20060;-76
2024/04/05 12:15:53;;;;;;;9.20;2.97;;;;;;;;;;4431441;32;20029;-76
2024/04/05 12:18:20;;;;;;;10.90;3.05;;;;;;;;;;4451232;32;20346;-76
2024/04/05 12:20:46;;;;;;;9.68;3.35;;;;;;;;;;4437117;32;20188;-76
2024/04/05 12:23:12;;;;;;;8.20;2.85;;;;;;;;;;4430955;32;20079;-76
2024/04/05 12:25:37;;;;;;;10.38;3.10;;;;;;;;;;4435322;32;20452;-77
2024/04/05 12:28:03;;;;;;;16.67;5.18;;;;;;;;;;4422452;32;20042;-76
2024/04/05 12:30:28;;;;;;;11.20;3.97;;;;;;;;;;4437334;32;20396;-76
2024/04/05 12:32:53;;;;;;;8.10;2.85;;;;;;;;;;4435989;32;20021;-74
2024/04/05 12:35:18;;;;;;;8.00;2.40;;;;;;;;;;4445587;32;20041;-76
2024/04/05 12:37:51;;;;;;;8.23;2.37;;;;;;;;;;4437730;32;20055;-76
2024/04/05 12:40:24;;;;;;;7.85;2.60;;;;;;;;;;4452636;32;20068;-76
2024/04/05 12:42:50;;;;;;;11.23;4.20;;;;;;;;;;4436574;32;20244;-76
2024/04/05 12:45:15;;;;;;;8.13;2.47;;;;;;;;;;4445146;32;20140;-75
2024/04/05 12:47:40;;;;;;;9.27;2.62;;;;;;;;;;4446734;32;20057;-74
2024/04/05 12:50:07;;;;;;;6.68;2.60;;;;;;;;;;4435612;32;20022;-75
2024/04/05 12:52:32;;;;;;;14.30;5.07;;;;;;;;;;4445048;32;20418;-76
2024/04/05 12:54:57;;;;;;;11.12;3.35;;;;;;;;;;4421033;32;20078;-75
2024/04/05 12:57:25;;;;;;;8.32;3.05;;;;;;;;;;4422915;32;20160;-76
2024/04/05 12:59:51;;;;;;;10.60;5.57;;;;;;;;;;4450490;32;20099;-75
2024/04/05 13:02:16;;;;;;;13.65;2.95;;;;;;;;;;4447102;32;20026;-76
2024/04/05 13:04:41;;;;;;;8.93;4.97;;;;;;;;;;4436804;32;20426;-75
2024/04/05 13:07:06;;;;;;;10.73;2.87;;;;;;;;;;4446788;32;20064;-76
2024/04/05 13:09:32;;;;;;;10.32;3.55;;;;;;;;;;4427383;32;20051;-75
2024/04/05 13:11:57;;;;;;;11.10;3.28;;;;;;;;;;4438088;32;20132;-75
2024/04/05 13:14:24;;;;;;;9.43;2.90;;;;;;;;;;4438134;32;20029;-76
2024/04/05 13:16:54;;;;;;;6.60;2.67;;;;;;;;;;4437053;32;20415;-76
2024/04/05 13:19:20;;;;;;;10.18;5.15;;;;;;;;;;4449036;32;20030;-75
2024/04/05 13:21:45;;;;;;;8.47;4.73;;;;;;;;;;4451727;32;20423;-75
2024/04/05 13:24:10;;;;;;;9.80;3.12;;;;;;;;;;4451709;32;20155;-75
2024/04/05 13:26:35;;;;;;;13.95;3.58;;;;;;;;;;4450598;32;20051;-77
2024/04/05 13:29:00;;;;;;;10.75;4.37;;;;;;;;;;4428085;32;20101;-74
2024/04/05 13:31:30;;;;;;;10.20;3.25;;;;;;;;;;4427545;32;20025;-76
2024/04/05 13:33:55;;;;;;;8.93;3.95;;;;;;;;;;4451272;32;20121;-77
2024/04/05 13:36:21;;;;;;;9.13;3.12;;;;;;;;;;4435397;32;20034;-74
2024/04/05 13:38:46;;;;;;;13.02;5.03;;;;;;;;;;4436277;32;20026;-75
2024/04/05 13:41:13;;;;;;;13.85;7.07;;;;;;;;;;4432389;32;20048;-77
2024/04/05 13:43:39;;;;;;;9.85;3.78;;;;;;;;;;4429620;32;20025;-76
2024/04/05 13:46:04;;;;;;;15.20;4.18;;;;;;;;;;4435678;32;20107;-77
2024/04/05 13:48:29;;;;;;;12.43;3.97;;;;;;;;;;4434894;32;20052;-74
2024/04/05 13:50:54;;;;;;;10.65;3.85;;;;;;;;;;4435139;32;20426;-74
2024/04/05 13:53:20;;;;;;;13.32;4.53;;;;;;;;;;4434387;32;20056;-76
2024/04/05 13:55:45;;;;;;;13.45;3.95;;;;;;;;;;4434149;32;20049;-78
2024/04/05 13:58:10;;;;;;;12.00;3.22;;;;;;;;;;4445670;32;20053;-80
2024/04/05 14:00:37;;;;;;;10.18;4.47;;;;;;;;;;4435914;32;20018;-76
2024/04/05 14:03:03;;;;;;;10.80;3.05;;;;;;;;;;4451178;32;20128;-75
2024/04/05 14:05:28;;;;;;;12.23;3.83;;;;;;;;;;4451028;32;20394;-77
2024/04/05 14:07:53;;;;;;;12.95;3.30;;;;;;;;;;4449323;32;20029;-75
2024/04/05 14:10:19;;;;;;;13.48;3.83;;;;;;;;;;4439404;32;20106;-75
2024/04/05 14:12:44;;;;;;;10.73;2.97;;;;;;;;;;4452462;32;20386;-78
2024/04/05 14:15:10;;;;;;;11.02;3.95;;;;;;;;;;4454252;32;20499;-74
2024/04/05 14:17:36;;;;;;;15.15;4.95;;;;;;;;;;4445630;32;20109;-76
2024/04/05 14:20:01;;;;;;;11.20;4.15;;;;;;;;;;4448988;32;20441;-75
2024/04/05 14:22:26;;;;;;;13.13;4.50;;;;;;;;;;4453093;32;20052;-75
2024/04/05 14:24:51;;;;;;;12.30;3.55;;;;;;;;;;4454607;32;20365;-74
2024/04/05 14:27:16;;;;;;;14.95;3.03;;;;;;;;;;4452466;32;20026;-75
2024/04/05 14:29:42;;;;;;;15.68;4.05;;;;;;;;;;4439848;32;20025;-75
2024/04/05 14:32:07;;;;;;;10.25;3.50;;;;;;;;;;4445805;32;20021;-74
2024/04/05 14:34:35;;;;;;;12.60;5.35;;;;;;;;;;4441638;32;20041;-77
2024/04/05 14:37:00;;;;;;;11.02;3.92;;;;;;;;;;4451538;32;20061;-75
2024/04/05 14:39:32;;;;;;;13.93;5.05;;;;;;;;;;4451424;32;20051;-74
2024/04/05 14:41:58;;;;;;;8.80;3.35;;;;;;;;;;4435484;32;20658;-74
2024/04/05 14:44:23;;;;;;;14.73;6.95;;;;;;;;;;4436839;32;20068;-75
2024/04/05 14:46:48;;;;;;;12.50;3.62;;;;;;;;;;4451301;32;20400;-75
2024/04/05 14:49:13;;;;;;;15.60;4.33;;;;;;;;;;4439407;32;20413;-73
2024/04/05 14:51:38;;;;;;;11.88;3.90;;;;;;;;;;4438586;32;20151;-75
2024/04/05 14:54:03;;;;;;;12.50;3.70;;;;;;;;;;4438679;32;20025;-74
2024/04/05 14:56:29;;;;;;;11.98;4.12;;;;;;;;;;4436598;32;20022;-73
2024/04/05 14:58:55;;;;;;;12.82;4.00;;;;;;;;;;4441470;32;20397;-74
2024/04/05 15:01:20;;;;;;;16.30;4.28;;;;;;;;;;4439476;32;20056;-74
2024/04/05 15:03:45;;;;;;;9.97;3.37;;;;;;;;;;4453796;32;20048;-75
2024/04/05 15:06:14;;;;;;;11.48;4.40;;;;;;;;;;4452561;32;20120;-74
2024/04/05 15:08:40;;;;;;;9.57;3.33;;;;;;;;;;4448378;32;20029;-74
2024/04/05 15:11:06;;;;;;;16.52;4.82;;;;;;;;;;4430245;32;20021;-76